createdAt,value
2023-05-13T00:00:01.104Z,99844.09
2023-05-13T00:02:31.756Z,99840.94
2023-05-13T00:05:01.482Z,99853.13
2023-05-13T00:07:33.790Z,99851.16
2023-05-13T00:10:03.797Z,99855.28
2023-05-13T00:12:33.884Z,99857.81
2023-05-13T00:15:03.614Z,99856.91
2023-05-13T00:17:33.638Z,99853.28
2023-05-13T00:20:04.196Z,99862.41
2023-05-13T00:22:36.652Z,99861.09
2023-05-13T00:25:06.878Z,99861.28
2023-05-13T00:27:36.533Z,99860.22
2023-05-13T00:30:06.718Z,99860.19
2023-05-13T00:32:37.363Z,99861.88
2023-05-13T00:35:07.939Z,99864.44
2023-05-13T00:37:40.222Z,99867.75
2023-05-13T00:40:20.079Z,99872.84
2023-05-13T00:42:50.117Z,99871.75
2023-05-13T00:45:20.456Z,99878.91
2023-05-13T00:47:52.318Z,99872.97
2023-05-13T00:50:22.813Z,99885.53
2023-05-13T00:52:56.183Z,99884.56
2023-05-13T00:55:26.836Z,99879.09
2023-05-13T00:57:56.534Z,99876.78
2023-05-13T01:00:26.243Z,99875.59
2023-05-13T01:03:01.191Z,99873.09
2023-05-13T01:05:38.418Z,99871.81
2023-05-13T01:08:20.339Z,99866.47
2023-05-13T01:10:53.348Z,99873.88
2023-05-13T01:13:27.267Z,99872.78
2023-05-13T01:16:04.275Z,99880.69
2023-05-13T01:18:39.377Z,99876.31
2023-05-13T01:21:10.564Z,99875.91
2023-05-13T01:23:42.875Z,99885.75
2023-05-13T01:26:12.750Z,99877.28
2023-05-13T01:28:42.606Z,99881.91
2023-05-13T01:31:12.691Z,99884.09
2023-05-13T01:33:43.917Z,99877.00
2023-05-13T01:36:14.739Z,99889.91
2023-05-13T01:38:48.222Z,99888.25
2023-05-13T01:41:18.047Z,99890.47
2023-05-13T01:43:47.817Z,99895.31
2023-05-13T01:46:18.305Z,99892.25
2023-05-13T01:48:48.315Z,99891.66
2023-05-13T01:51:18.101Z,99894.19
2023-05-13T01:53:53.046Z,99890.88
2023-05-13T01:56:23.866Z,99889.91
2023-05-13T01:58:54.107Z,99889.50
2023-05-13T02:01:23.884Z,99885.13
2023-05-13T02:03:54.041Z,99881.84
2023-05-13T02:06:23.802Z,99885.06
2023-05-13T02:08:56.109Z,99882.13
2023-05-13T02:11:26.264Z,99884.31
2023-05-13T02:13:56.138Z,99903.25
2023-05-13T02:16:25.932Z,99895.94
2023-05-13T02:18:55.662Z,99884.84
2023-05-13T02:21:30.806Z,99896.88
2023-05-13T02:24:03.097Z,99887.53
2023-05-13T02:26:33.893Z,99895.84
2023-05-13T02:29:03.642Z,99900.50
2023-05-13T02:31:33.420Z,99892.13
2023-05-13T02:34:03.157Z,99890.78
2023-05-13T02:36:32.890Z,99903.06
2023-05-13T02:39:05.313Z,99905.72
2023-05-13T02:41:35.435Z,99905.91
2023-05-13T02:44:05.208Z,99907.56
2023-05-13T02:46:35.530Z,99902.06
2023-05-13T02:49:05.885Z,99899.53
2023-05-13T02:51:35.636Z,99893.84
2023-05-13T02:54:09.036Z,99903.56
2023-05-13T02:56:38.753Z,99906.16
2023-05-13T02:59:08.519Z,99897.44
2023-05-13T03:01:38.487Z,99898.75
2023-05-13T03:04:08.152Z,99898.34
2023-05-13T03:06:37.916Z,99893.41
2023-05-13T03:09:10.179Z,99900.78
2023-05-13T03:11:39.891Z,99905.59
2023-05-13T03:14:09.569Z,99911.38
2023-05-13T03:16:41.338Z,99916.25
2023-05-13T03:19:11.139Z,99908.50
2023-05-13T03:21:41.105Z,99912.09
2023-05-13T03:24:16.365Z,99913.75
2023-05-13T03:26:46.350Z,99908.81
2023-05-13T03:29:16.808Z,99911.16
2023-05-13T03:31:46.850Z,99915.25
2023-05-13T03:34:16.801Z,99910.47
2023-05-13T03:36:46.678Z,99913.41
2023-05-13T03:39:19.418Z,99912.84
2023-05-13T03:41:49.352Z,99913.19
2023-05-13T03:44:19.263Z,99914.91
2023-05-13T03:46:49.447Z,99923.47
2023-05-13T03:49:19.561Z,99922.47
2023-05-13T03:51:49.631Z,99923.69
2023-05-13T03:54:22.416Z,99927.28
2023-05-13T03:56:52.204Z,99923.47
2023-05-13T03:59:21.965Z,99929.72
2023-05-13T04:01:51.847Z,99929.72
2023-05-13T04:04:21.759Z,99933.66
2023-05-13T04:06:51.710Z,99936.09
2023-05-13T04:09:24.073Z,99942.59
2023-05-13T04:11:53.876Z,99937.72
2023-05-13T04:14:23.769Z,99936.97
2023-05-13T04:16:53.587Z,99927.91
2023-05-13T04:19:23.592Z,99928.44
2023-05-13T04:21:53.660Z,99930.28
2023-05-13T04:24:28.743Z,99931.28
2023-05-13T04:27:00.086Z,99935.31
2023-05-13T04:29:32.031Z,99929.69
2023-05-13T04:32:01.911Z,99921.25
2023-05-13T04:34:31.734Z,99920.28
2023-05-13T04:37:01.424Z,99919.38
2023-05-13T04:39:33.847Z,99931.22
2023-05-13T04:42:03.999Z,99922.72
2023-05-13T04:44:35.309Z,99934.41
2023-05-13T04:47:05.080Z,99917.81
2023-05-13T04:49:36.560Z,99922.78
2023-05-13T04:52:08.571Z,99936.16
2023-05-13T04:54:41.005Z,99946.13
2023-05-13T04:57:13.299Z,99934.97
2023-05-13T04:59:43.382Z,99939.84
2023-05-13T05:02:13.866Z,99936.81
2023-05-13T05:04:43.777Z,99939.94
2023-05-13T05:07:16.486Z,99929.94
2023-05-13T05:09:48.896Z,99929.94
2023-05-13T05:12:19.051Z,99918.06
2023-05-13T05:14:49.000Z,99937.94
2023-05-13T05:17:19.061Z,99928.44
2023-05-13T05:19:49.526Z,99927.16
2023-05-13T05:22:19.508Z,99929.91
2023-05-13T05:24:52.224Z,99934.84
2023-05-13T05:27:21.972Z,99950.56
2023-05-13T05:29:51.908Z,99945.59
2023-05-13T05:32:22.338Z,99944.19
2023-05-13T05:34:52.082Z,99943.38
2023-05-13T05:37:21.862Z,99938.16
2023-05-13T05:39:54.421Z,99948.03
2023-05-13T05:42:24.327Z,99945.69
2023-05-13T05:44:54.374Z,99947.41
2023-05-13T05:47:24.298Z,99948.97
2023-05-13T05:49:54.303Z,99957.69
2023-05-13T05:52:24.172Z,99958.53
2023-05-13T05:54:57.900Z,99957.44
2023-05-13T05:57:27.792Z,99958.38
2023-05-13T05:59:57.745Z,99951.84
2023-05-13T06:02:27.890Z,99952.69
2023-05-13T06:04:57.967Z,99954.13
2023-05-13T06:07:31.112Z,99960.25
2023-05-13T06:10:05.038Z,99957.47
2023-05-13T06:12:36.540Z,99950.28
2023-05-13T06:15:10.671Z,99949.19
2023-05-13T06:17:40.443Z,99937.53
2023-05-13T06:20:11.349Z,99943.06
2023-05-13T06:22:41.144Z,99946.53
2023-05-13T06:25:13.853Z,99957.78
2023-05-13T06:27:44.409Z,99951.63
2023-05-13T06:30:14.439Z,99947.16
2023-05-13T06:33:00.182Z,99959.34
2023-05-13T06:35:31.702Z,99964.38
2023-05-13T06:38:03.213Z,99964.19
2023-05-13T06:40:35.540Z,99965.03
2023-05-13T06:43:05.512Z,99973.94
2023-05-13T06:45:40.567Z,99972.94
2023-05-13T06:48:10.397Z,99970.88
2023-05-13T06:50:41.223Z,99973.28
2023-05-13T06:53:12.844Z,99979.03
2023-05-13T06:55:45.204Z,99975.47
2023-05-13T06:58:14.960Z,99971.59
2023-05-13T07:00:46.914Z,99978.19
2023-05-13T07:03:16.703Z,99978.72
2023-05-13T07:05:46.620Z,99972.94
2023-05-13T07:08:18.156Z,99981.69
2023-05-13T07:10:50.619Z,99969.09
2023-05-13T07:13:21.003Z,99986.19
2023-05-13T07:15:50.711Z,99976.66
2023-05-13T07:18:20.545Z,99965.09
2023-05-13T07:20:50.315Z,99969.78
2023-05-13T07:23:20.060Z,99971.47
2023-05-13T07:25:52.794Z,99969.47
2023-05-13T07:28:22.741Z,99972.00
2023-05-13T07:30:53.677Z,99969.41
2023-05-13T07:33:23.374Z,99967.91
2023-05-13T07:35:53.261Z,99980.94
2023-05-13T07:38:23.093Z,99980.78
2023-05-13T07:40:55.366Z,99977.09
2023-05-13T07:43:25.704Z,99978.66
2023-05-13T07:45:55.463Z,99971.00
2023-05-13T07:48:25.912Z,99979.16
2023-05-13T07:50:55.665Z,99983.13
2023-05-13T07:53:25.559Z,99979.34
2023-05-13T07:55:57.825Z,99978.69
2023-05-13T07:58:27.603Z,99981.84
2023-05-13T08:00:57.302Z,99985.19
2023-05-13T08:03:27.169Z,99980.41
2023-05-13T08:05:56.992Z,99979.56
2023-05-13T08:08:27.011Z,99989.50
2023-05-13T08:10:59.357Z,99988.22
2023-05-13T08:13:29.011Z,99997.50
2023-05-13T08:15:58.703Z,99982.97
2023-05-13T08:18:28.353Z,99986.31
2023-05-13T08:20:58.016Z,99989.72
2023-05-13T08:23:43.326Z,99974.81
2023-05-13T08:26:17.421Z,99984.25
2023-05-13T08:28:48.034Z,99989.94
2023-05-13T08:31:18.087Z,99996.78
2023-05-13T08:33:48.777Z,99990.75
2023-05-13T08:36:18.494Z,99998.16
2023-05-13T08:38:48.331Z,99991.56
2023-05-13T08:41:22.079Z,99994.56
2023-05-13T08:43:53.034Z,100002.34
2023-05-13T08:46:26.587Z,99999.38
2023-05-13T08:48:58.092Z,99995.06
2023-05-13T08:51:27.919Z,99992.13
2023-05-13T08:53:59.074Z,99992.41
2023-05-13T08:56:31.462Z,99988.56
2023-05-13T08:59:01.351Z,100000.88
2023-05-13T09:01:33.068Z,100000.41
2023-05-13T09:04:07.294Z,99989.78
2023-05-13T09:06:36.990Z,99985.28
2023-05-13T09:09:06.808Z,100003.66
2023-05-13T09:11:42.634Z,100001.63
2023-05-13T09:14:13.985Z,99996.91
2023-05-13T09:16:45.293Z,99993.41
2023-05-13T09:19:15.223Z,99987.19
2023-05-13T09:21:46.790Z,99992.44
2023-05-13T09:24:19.125Z,99986.00
2023-05-13T09:26:52.665Z,100004.19
2023-05-13T09:29:26.589Z,99984.38
2023-05-13T09:31:58.088Z,99980.09
2023-05-13T09:34:30.082Z,99983.28
2023-05-13T09:37:01.276Z,99980.41
2023-05-13T09:39:33.863Z,99982.84
2023-05-13T09:42:07.173Z,99976.63
2023-05-13T09:44:38.401Z,99971.47
2023-05-13T09:47:08.381Z,99978.59
2023-05-13T09:49:38.098Z,99971.91
2023-05-13T09:52:11.451Z,99972.66
2023-05-13T09:54:41.510Z,99977.47
2023-05-13T09:57:17.771Z,99963.22
2023-05-13T09:59:47.424Z,99972.78
2023-05-13T10:02:18.564Z,99976.53
2023-05-13T10:04:48.750Z,99970.31
2023-05-13T10:07:21.186Z,99969.28
2023-05-13T10:09:51.163Z,99971.09
2023-05-13T10:12:24.438Z,99963.47
2023-05-13T10:14:55.622Z,99971.38
2023-05-13T10:17:26.721Z,99971.94
2023-05-13T10:19:57.610Z,99971.13
2023-05-13T10:22:31.546Z,99965.41
2023-05-13T10:25:02.410Z,99972.28
2023-05-13T10:27:36.896Z,99966.88
2023-05-13T10:30:10.375Z,99959.38
2023-05-13T10:32:42.062Z,99966.97
2023-05-13T10:35:15.713Z,99973.69
2023-05-13T10:38:03.174Z,99967.00
2023-05-13T10:40:55.932Z,99956.22
2023-05-13T10:43:32.874Z,99968.03
2023-05-13T10:46:04.950Z,99958.03
2023-05-13T10:48:43.555Z,99955.53
2023-05-13T10:51:17.874Z,99958.34
2023-05-13T10:53:51.040Z,99950.91
2023-05-13T10:56:23.273Z,99951.75
2023-05-13T10:59:04.600Z,99951.59
2023-05-13T11:01:39.331Z,99950.13
2023-05-13T11:04:09.258Z,99951.00
2023-05-13T11:06:41.167Z,99947.91
2023-05-13T11:09:14.756Z,99943.75
2023-05-13T11:11:44.950Z,99947.19
2023-05-13T11:14:21.942Z,99943.00
2023-05-13T11:16:56.885Z,99938.56
2023-05-13T11:19:31.535Z,99946.38
2023-05-13T11:22:11.027Z,99938.38
2023-05-13T11:24:40.942Z,99943.03
2023-05-13T11:27:18.385Z,99947.88
2023-05-13T11:29:55.313Z,99939.41
2023-05-13T11:32:56.765Z,99939.19
2023-05-13T11:35:28.045Z,99936.31
2023-05-13T11:38:00.123Z,99936.31
2023-05-13T11:40:33.349Z,99929.75
2023-05-13T11:43:05.261Z,99929.09
2023-05-13T11:45:42.471Z,99929.91
2023-05-13T11:48:22.372Z,99930.69
2023-05-13T11:50:53.412Z,99938.66
2023-05-13T11:53:24.655Z,99933.41
2023-05-13T11:55:55.711Z,99940.22
2023-05-13T11:58:25.354Z,99943.88
2023-05-13T12:00:57.656Z,99937.25
2023-05-13T12:03:30.548Z,99948.06
2023-05-13T12:06:03.971Z,99935.72
2023-05-13T12:08:33.990Z,99936.19
2023-05-13T12:11:05.723Z,99944.63
2023-05-13T12:13:35.910Z,99948.56
2023-05-13T12:16:08.987Z,99933.72
2023-05-13T12:18:40.772Z,99945.88
2023-05-13T12:21:18.230Z,99946.91
2023-05-13T12:23:47.912Z,99937.34
2023-05-13T12:26:18.219Z,99936.41
2023-05-13T12:28:47.878Z,99939.56
2023-05-13T12:31:21.312Z,99931.91
2023-05-13T12:33:51.813Z,99934.47
2023-05-13T12:36:26.159Z,99928.94
2023-05-13T12:39:01.377Z,99930.38
2023-05-13T12:41:32.836Z,99942.72
2023-05-13T12:44:03.574Z,99935.09
2023-05-13T12:46:35.931Z,99943.88
2023-05-13T12:49:07.875Z,99946.88
2023-05-13T12:51:37.614Z,99946.06
2023-05-13T12:54:07.567Z,99927.72
2023-05-13T12:56:37.221Z,99931.72
2023-05-13T12:59:06.926Z,99937.59
2023-05-13T13:01:40.056Z,99935.72
2023-05-13T13:04:09.937Z,99930.75
2023-05-13T13:06:39.894Z,99926.19
2023-05-13T13:09:09.640Z,99932.94
2023-05-13T13:11:39.530Z,99929.44
2023-05-13T13:14:09.664Z,99927.56
2023-05-13T13:16:42.043Z,99929.72
2023-05-13T13:19:12.768Z,99926.47
2023-05-13T13:21:42.494Z,99925.34
2023-05-13T13:24:12.151Z,99926.47
2023-05-13T13:26:41.843Z,99929.25
2023-05-13T13:29:11.977Z,99936.16
2023-05-13T13:31:44.283Z,99935.19
2023-05-13T13:34:14.020Z,99921.06
2023-05-13T13:36:43.765Z,99928.50
2023-05-13T13:39:13.451Z,99916.75
2023-05-13T13:41:43.420Z,99922.59
2023-05-13T13:44:13.074Z,99907.28
2023-05-13T13:46:45.589Z,99907.34
2023-05-13T13:49:23.046Z,99900.78
2023-05-13T13:51:53.297Z,99905.38
2023-05-13T13:54:23.402Z,99896.56
2023-05-13T13:56:53.076Z,99901.06
2023-05-13T13:59:22.712Z,99905.84
2023-05-13T14:01:55.043Z,99902.91
2023-05-13T14:04:27.835Z,99898.59
2023-05-13T14:06:58.218Z,99899.97
2023-05-13T14:09:27.984Z,99885.66
2023-05-13T14:11:57.656Z,99898.84
2023-05-13T14:14:27.486Z,99903.63
2023-05-13T14:16:59.821Z,99900.13
2023-05-13T14:19:29.490Z,99900.91
2023-05-13T14:21:59.175Z,99893.63
2023-05-13T14:24:29.024Z,99897.50
2023-05-13T14:26:58.766Z,99891.72
2023-05-13T14:29:29.239Z,99890.13
2023-05-13T14:32:02.149Z,99881.03
2023-05-13T14:34:31.962Z,99876.31
2023-05-13T14:37:01.632Z,99882.09
2023-05-13T14:39:31.276Z,99876.88
2023-05-13T14:42:00.974Z,99872.66
2023-05-13T14:44:30.693Z,99878.25
2023-05-13T14:47:03.103Z,99881.22
2023-05-13T14:49:32.851Z,99882.28
2023-05-13T14:52:02.578Z,99884.25
2023-05-13T14:54:35.902Z,99882.63
2023-05-13T14:57:05.851Z,99869.19
2023-05-13T14:59:35.764Z,99871.44
2023-05-13T15:02:08.265Z,99871.41
2023-05-13T15:04:37.974Z,99863.41
2023-05-13T15:07:08.334Z,99860.16
2023-05-13T15:09:38.031Z,99874.63
2023-05-13T15:12:08.814Z,99868.16
2023-05-13T15:14:38.494Z,99875.41
2023-05-13T15:17:12.232Z,99877.53
2023-05-13T15:19:42.477Z,99873.50
2023-05-13T15:22:12.577Z,99871.72
2023-05-13T15:24:42.376Z,99888.22
2023-05-13T15:27:12.810Z,99869.34
2023-05-13T15:29:42.462Z,99872.00
2023-05-13T15:32:14.698Z,99871.81
2023-05-13T15:34:44.323Z,99864.84
2023-05-13T15:37:14.400Z,99861.13
2023-05-13T15:39:44.546Z,99850.06
2023-05-13T15:42:14.252Z,99862.75
2023-05-13T15:44:45.709Z,99856.22
2023-05-13T15:47:18.059Z,99852.16
2023-05-13T15:49:49.583Z,99848.00
2023-05-13T15:52:19.340Z,99849.09
2023-05-13T15:54:48.999Z,99844.41
2023-05-13T15:57:19.423Z,99849.28
2023-05-13T15:59:49.134Z,99853.84
2023-05-13T16:02:21.388Z,99844.09
2023-05-13T16:04:51.277Z,99852.84
2023-05-13T16:07:20.957Z,99840.81
2023-05-13T16:09:50.620Z,99833.91
2023-05-13T16:12:20.323Z,99846.81
2023-05-13T16:14:49.943Z,99849.91
2023-05-13T16:17:22.215Z,99835.81
2023-05-13T16:19:52.113Z,99836.09
2023-05-13T16:22:30.546Z,99837.81
2023-05-13T16:25:02.702Z,99830.84
2023-05-13T16:27:33.222Z,99832.00
2023-05-13T16:30:04.270Z,99836.13
2023-05-13T16:32:37.714Z,99833.13
2023-05-13T16:35:08.553Z,99834.59
2023-05-13T16:37:38.261Z,99832.34
2023-05-13T16:40:09.623Z,99831.88
2023-05-13T16:42:39.555Z,99834.13
2023-05-13T16:45:10.970Z,99830.13
2023-05-13T16:47:43.683Z,99830.44
2023-05-13T16:50:13.593Z,99833.97
2023-05-13T16:52:45.975Z,99830.09
2023-05-13T16:55:16.401Z,99837.25
2023-05-13T16:57:47.003Z,99822.94
2023-05-13T17:00:17.494Z,99821.28
2023-05-13T17:02:49.767Z,99825.13
2023-05-13T17:05:19.565Z,99823.31
2023-05-13T17:07:49.211Z,99822.31
2023-05-13T17:10:18.897Z,99824.00
2023-05-13T17:12:48.596Z,99822.31
2023-05-13T17:15:18.289Z,99824.34
2023-05-13T17:17:50.827Z,99827.03
2023-05-13T17:20:20.926Z,99827.13
2023-05-13T17:22:51.626Z,99827.84
2023-05-13T17:25:21.306Z,99827.19
2023-05-13T17:27:53.615Z,99828.91
2023-05-13T17:30:24.011Z,99820.13
2023-05-13T17:32:56.545Z,99824.06
2023-05-13T17:35:26.218Z,99821.13
2023-05-13T17:37:55.850Z,99823.97
2023-05-13T17:40:26.528Z,99814.72
2023-05-13T17:42:56.584Z,99822.41
2023-05-13T17:45:26.522Z,99832.16
2023-05-13T17:47:58.998Z,99832.06
2023-05-13T17:50:30.470Z,99835.75
2023-05-13T17:53:00.403Z,99832.41
2023-05-13T17:55:30.271Z,99836.75
2023-05-13T17:58:00.605Z,99842.38
2023-05-13T18:00:30.833Z,99838.91
2023-05-13T18:03:03.233Z,99837.59
2023-05-13T18:05:33.617Z,99841.06
2023-05-13T18:08:03.506Z,99850.66
2023-05-13T18:10:33.361Z,99848.41
2023-05-13T18:13:03.172Z,99836.06
2023-05-13T18:15:32.990Z,99837.69
2023-05-13T18:18:05.766Z,99844.59
2023-05-13T18:20:36.319Z,99846.38
2023-05-13T18:23:06.052Z,99855.78
2023-05-13T18:25:42.590Z,99846.16
2023-05-13T18:28:21.997Z,99849.25
2023-05-13T18:30:51.834Z,99856.28
2023-05-13T18:33:24.583Z,99857.00
2023-05-13T18:35:54.297Z,99866.44
2023-05-13T18:38:24.069Z,99855.94
2023-05-13T18:40:53.897Z,99852.53
2023-05-13T18:43:23.748Z,99857.44
2023-05-13T18:45:54.909Z,99867.44
2023-05-13T18:48:28.547Z,99870.25
2023-05-13T18:50:58.424Z,99872.63
2023-05-13T18:53:28.279Z,99879.06
2023-05-13T18:55:58.329Z,99883.00
2023-05-13T18:58:28.732Z,99880.47
2023-05-13T19:00:58.690Z,99884.75
2023-05-13T19:03:31.625Z,99881.63
2023-05-13T19:06:01.549Z,99889.47
2023-05-13T19:08:31.344Z,99890.50
2023-05-13T19:11:01.340Z,99900.97
2023-05-13T19:13:43.366Z,99899.31
2023-05-13T19:16:16.450Z,99895.38
2023-05-13T19:18:49.149Z,99899.91
2023-05-13T19:21:18.858Z,99907.47
2023-05-13T19:23:48.967Z,99908.19
2023-05-13T19:26:18.968Z,99908.28
2023-05-13T19:28:49.201Z,99899.00
2023-05-13T19:31:18.946Z,99905.38
2023-05-13T19:33:51.352Z,99901.88
2023-05-13T19:36:22.298Z,99901.25
2023-05-13T19:38:52.430Z,99902.69
2023-05-13T19:41:22.762Z,99903.69
2023-05-13T19:43:53.305Z,99903.09
2023-05-13T19:46:23.207Z,99908.94
2023-05-13T19:48:55.561Z,99901.91
2023-05-13T19:51:26.897Z,99911.16
2023-05-13T19:53:56.902Z,99910.69
2023-05-13T19:56:26.676Z,99912.31
2023-05-13T19:58:56.572Z,99911.38
2023-05-13T20:01:26.974Z,99911.38
2023-05-13T20:03:59.423Z,99914.13
2023-05-13T20:06:29.434Z,99924.44
2023-05-13T20:08:59.586Z,99914.69
2023-05-13T20:11:29.365Z,99913.09
2023-05-13T20:13:59.754Z,99921.53
2023-05-13T20:16:29.730Z,99914.91
2023-05-13T20:19:02.455Z,99915.88
2023-05-13T20:21:32.801Z,99916.09
2023-05-13T20:24:02.672Z,99912.56
2023-05-13T20:26:34.828Z,99922.09
2023-05-13T20:29:04.849Z,99916.41
2023-05-13T20:31:34.669Z,99921.91
2023-05-13T20:34:07.160Z,99920.38
2023-05-13T20:36:38.999Z,99933.22
2023-05-13T20:39:09.564Z,99924.09
2023-05-13T20:41:39.308Z,99933.19
2023-05-13T20:44:09.376Z,99935.22
2023-05-13T20:46:39.152Z,99932.09
2023-05-13T20:49:11.521Z,99937.59
2023-05-13T20:51:41.856Z,99936.28
2023-05-13T20:54:12.896Z,99939.56
2023-05-13T20:56:43.031Z,99949.44
2023-05-13T20:59:13.027Z,99943.50
2023-05-13T21:01:47.485Z,99936.97
2023-05-13T21:04:19.868Z,99942.88
2023-05-13T21:06:49.887Z,99937.41
2023-05-13T21:09:19.726Z,99935.41
2023-05-13T21:11:49.429Z,99935.28
2023-05-13T21:14:19.115Z,99924.91
2023-05-13T21:16:48.819Z,99917.81
2023-05-13T21:19:24.921Z,99934.22
2023-05-13T21:21:54.640Z,99926.72
2023-05-13T21:24:24.294Z,99931.34
2023-05-13T21:26:54.044Z,99933.66
2023-05-13T21:29:23.682Z,99930.97
2023-05-13T21:31:54.675Z,99931.53
2023-05-13T21:34:27.057Z,99928.72
2023-05-13T21:36:56.733Z,99933.22
2023-05-13T21:39:26.394Z,99932.81
2023-05-13T21:41:56.476Z,99933.47
2023-05-13T21:44:26.491Z,99931.13
2023-05-13T21:46:56.116Z,99931.66
2023-05-13T21:49:28.695Z,99936.75
2023-05-13T21:51:58.388Z,99934.34
2023-05-13T21:54:28.204Z,99947.28
2023-05-13T21:56:57.887Z,99946.00
2023-05-13T21:59:27.631Z,99942.28
2023-05-13T22:01:57.492Z,99940.06
2023-05-13T22:04:29.760Z,99942.28
2023-05-13T22:06:59.411Z,99937.31
2023-05-13T22:09:29.324Z,99938.47
2023-05-13T22:11:59.126Z,99939.53
2023-05-13T22:14:29.003Z,99937.56
2023-05-13T22:17:09.178Z,99930.91
2023-05-13T22:19:42.481Z,99929.19
2023-05-13T22:22:12.417Z,99920.34
2023-05-13T22:24:42.128Z,99927.66
2023-05-13T22:27:11.847Z,99934.22
2023-05-13T22:29:41.573Z,99934.16
2023-05-13T22:32:11.413Z,99929.31
2023-05-13T22:34:43.802Z,99932.66
2023-05-13T22:37:13.694Z,99930.72
2023-05-13T22:39:43.440Z,99941.50
2023-05-13T22:42:13.385Z,99930.75
2023-05-13T22:44:43.085Z,99931.34
2023-05-13T22:47:12.764Z,99943.91
2023-05-13T22:49:45.018Z,99944.69
2023-05-13T22:52:14.726Z,99936.59
2023-05-13T22:54:44.371Z,99936.84
2023-05-13T22:57:14.072Z,99939.19
2023-05-13T22:59:43.738Z,99946.53
2023-05-13T23:02:13.472Z,99932.41
2023-05-13T23:04:45.787Z,99946.00
2023-05-13T23:07:15.535Z,99937.78
2023-05-13T23:09:45.249Z,99933.06
2023-05-13T23:12:14.906Z,99936.78
2023-05-13T23:14:44.848Z,99930.28
2023-05-13T23:17:14.615Z,99935.72
2023-05-13T23:19:46.955Z,99938.56
2023-05-13T23:22:16.660Z,99938.16
2023-05-13T23:24:46.389Z,99934.69
2023-05-13T23:27:16.077Z,99938.25
2023-05-13T23:29:45.737Z,99933.00
2023-05-13T23:32:16.168Z,99936.19
2023-05-13T23:34:48.396Z,99937.22
2023-05-13T23:37:18.240Z,99935.69
2023-05-13T23:39:48.198Z,99926.34
2023-05-13T23:42:17.829Z,99934.13
2023-05-13T23:44:47.585Z,99933.34
2023-05-13T23:47:17.288Z,99927.50
2023-05-13T23:49:49.703Z,99932.75
2023-05-13T23:52:19.494Z,99933.75
2023-05-13T23:54:49.213Z,99931.44
2023-05-13T23:57:18.933Z,99926.44
2023-05-13T23:59:48.658Z,99934.13
